sensor_id;sensor_type;location;lat;lon;timestamp;P1;durP1;ratioP1;P2;durP2;ratioP2
3911;SDS011;1971;51.778;10.330;2023-11-21T00:01:38;11.07;;;7.27;;
3911;SDS011;1971;51.778;10.330;2023-11-21T00:04:11;14.07;;;8.07;;
3911;SDS011;1971;51.778;10.330;2023-11-21T00:06:42;8.73;;;6.50;;
3911;SDS011;1971;51.778;10.330;2023-11-21T00:09:14;12.53;;;8.10;;
3911;SDS011;1971;51.778;10.330;2023-11-21T00:11:45;10.50;;;7.80;;
3911;SDS011;1971;51.778;10.330;2023-11-21T00:14:15;9.97;;;7.00;;
3911;SDS011;1971;51.778;10.330;2023-11-21T00:16:45;9.10;;;6.27;;
3911;SDS011;1971;51.778;10.330;2023-11-21T00:19:18;12.17;;;7.93;;
3911;SDS011;1971;51.778;10.330;2023-11-21T00:21:49;12.07;;;9.50;;
3911;SDS011;1971;51.778;10.330;2023-11-21T00:24:19;11.47;;;8.33;;
3911;SDS011;1971;51.778;10.330;2023-11-21T00:26:49;13.53;;;8.70;;
3911;SDS011;1971;51.778;10.330;2023-11-21T00:29:20;13.47;;;8.90;;
3911;SDS011;1971;51.778;10.330;2023-11-21T00:31:50;13.23;;;7.90;;
3911;SDS011;1971;51.778;10.330;2023-11-21T00:34:23;17.37;;;8.37;;
3911;SDS011;1971;51.778;10.330;2023-11-21T00:36:53;14.10;;;9.00;;
3911;SDS011;1971;51.778;10.330;2023-11-21T00:39:23;11.00;;;7.73;;
3911;SDS011;1971;51.778;10.330;2023-11-21T00:41:53;11.70;;;7.57;;
3911;SDS011;1971;51.778;10.330;2023-11-21T00:44:24;11.60;;;8.00;;
3911;SDS011;1971;51.778;10.330;2023-11-21T00:46:54;15.33;;;8.90;;
3911;SDS011;1971;51.778;10.330;2023-11-21T00:49:27;9.17;;;7.90;;
3911;SDS011;1971;51.778;10.330;2023-11-21T00:51:57;15.97;;;9.37;;
3911;SDS011;1971;51.778;10.330;2023-11-21T00:54:28;14.67;;;10.50;;
3911;SDS011;1971;51.778;10.330;2023-11-21T00:57:00;12.40;;;9.40;;
3911;SDS011;1971;51.778;10.330;2023-11-21T00:59:31;18.97;;;10.97;;
3911;SDS011;1971;51.778;10.330;2023-11-21T01:02:01;17.70;;;11.63;;
3911;SDS011;1971;51.778;10.330;2023-11-21T01:04:34;13.93;;;9.30;;
3911;SDS011;1971;51.778;10.330;2023-11-21T01:07:04;13.67;;;9.93;;
3911;SDS011;1971;51.778;10.330;2023-11-21T01:09:35;12.20;;;9.47;;
3911;SDS011;1971;51.778;10.330;2023-11-21T01:12:05;14.50;;;10.53;;
3911;SDS011;1971;51.778;10.330;2023-11-21T01:14:36;12.37;;;9.70;;
3911;SDS011;1971;51.778;10.330;2023-11-21T01:17:07;15.93;;;11.00;;
3911;SDS011;1971;51.778;10.330;2023-11-21T01:19:40;12.73;;;9.53;;
3911;SDS011;1971;51.778;10.330;2023-11-21T01:22:10;14.47;;;9.23;;
3911;SDS011;1971;51.778;10.330;2023-11-21T01:24:43;14.93;;;10.27;;
3911;SDS011;1971;51.778;10.330;2023-11-21T01:27:13;11.70;;;9.90;;
3911;SDS011;1971;51.778;10.330;2023-11-21T01:29:43;17.83;;;10.27;;
3911;SDS011;1971;51.778;10.330;2023-11-21T01:32:14;14.00;;;9.70;;
3911;SDS011;1971;51.778;10.330;2023-11-21T01:34:47;13.27;;;10.03;;
3911;SDS011;1971;51.778;10.330;2023-11-21T01:37:19;17.27;;;10.53;;
3911;SDS011;1971;51.778;10.330;2023-11-21T01:39:50;18.27;;;10.90;;
3911;SDS011;1971;51.778;10.330;2023-11-21T01:42:21;13.73;;;10.20;;
3911;SDS011;1971;51.778;10.330;2023-11-21T01:44:51;16.90;;;10.30;;
3911;SDS011;1971;51.778;10.330;2023-11-21T01:47:21;15.83;;;9.87;;
3911;SDS011;1971;51.778;10.330;2023-11-21T01:49:55;22.00;;;11.70;;
3911;SDS011;1971;51.778;10.330;2023-11-21T01:52:25;16.33;;;10.97;;
3911;SDS011;1971;51.778;10.330;2023-11-21T01:54:56;18.87;;;12.10;;
3911;SDS011;1971;51.778;10.330;2023-11-21T01:57:28;22.37;;;11.20;;
3911;SDS011;1971;51.778;10.330;2023-11-21T01:59:59;19.20;;;10.90;;
3911;SDS011;1971;51.778;10.330;2023-11-21T02:02:42;21.20;;;11.23;;
3911;SDS011;1971;51.778;10.330;2023-11-21T02:05:16;15.33;;;10.43;;
3911;SDS011;1971;51.778;10.330;2023-11-21T02:07:48;14.57;;;10.07;;
3911;SDS011;1971;51.778;10.330;2023-11-21T02:10:19;19.07;;;11.40;;
3911;SDS011;1971;51.778;10.330;2023-11-21T02:12:51;14.23;;;9.60;;
3911;SDS011;1971;51.778;10.330;2023-11-21T02:15:22;16.10;;;12.00;;
3911;SDS011;1971;51.778;10.330;2023-11-21T02:17:55;22.10;;;11.60;;
3911;SDS011;1971;51.778;10.330;2023-11-21T02:20:29;18.70;;;12.00;;
3911;SDS011;1971;51.778;10.330;2023-11-21T02:23:05;20.67;;;10.57;;
3911;SDS011;1971;51.778;10.330;2023-11-21T02:25:36;16.77;;;11.17;;
3911;SDS011;1971;51.778;10.330;2023-11-21T02:28:06;22.73;;;11.60;;
3911;SDS011;1971;51.778;10.330;2023-11-21T02:30:39;14.53;;;10.50;;
3911;SDS011;1971;51.778;10.330;2023-11-21T02:33:11;17.03;;;11.47;;
3911;SDS011;1971;51.778;10.330;2023-11-21T02:35:41;19.20;;;12.17;;
3911;SDS011;1971;51.778;10.330;2023-11-21T02:38:15;19.90;;;11.90;;
3911;SDS011;1971;51.778;10.330;2023-11-21T02:40:45;20.37;;;12.60;;
3911;SDS011;1971;51.778;10.330;2023-11-21T02:43:16;25.00;;;12.47;;
3911;SDS011;1971;51.778;10.330;2023-11-21T02:45:46;28.57;;;13.40;;
3911;SDS011;1971;51.778;10.330;2023-11-21T02:48:16;24.67;;;12.70;;
3911;SDS011;1971;51.778;10.330;2023-11-21T02:50:46;37.90;;;16.30;;
3911;SDS011;1971;51.778;10.330;2023-11-21T02:53:20;69.53;;;21.40;;
3911;SDS011;1971;51.778;10.330;2023-11-21T02:55:51;49.40;;;17.20;;
3911;SDS011;1971;51.778;10.330;2023-11-21T02:58:21;75.73;;;22.83;;
3911;SDS011;1971;51.778;10.330;2023-11-21T03:00:51;82.27;;;19.47;;
3911;SDS011;1971;51.778;10.330;2023-11-21T03:03:22;79.57;;;22.60;;
3911;SDS011;1971;51.778;10.330;2023-11-21T03:05:52;88.43;;;20.17;;
3911;SDS011;1971;51.778;10.330;2023-11-21T03:08:25;104.23;;;27.60;;
3911;SDS011;1971;51.778;10.330;2023-11-21T03:10:55;131.70;;;32.37;;
3911;SDS011;1971;51.778;10.330;2023-11-21T03:13:25;181.47;;;34.37;;
3911;SDS011;1971;51.778;10.330;2023-11-21T03:15:57;154.87;;;28.73;;
3911;SDS011;1971;51.778;10.330;2023-11-21T03:18:27;103.53;;;24.50;;
3911;SDS011;1971;51.778;10.330;2023-11-21T03:20:58;85.27;;;21.73;;
3911;SDS011;1971;51.778;10.330;2023-11-21T03:23:32;153.03;;;33.87;;
3911;SDS011;1971;51.778;10.330;2023-11-21T03:26:02;125.67;;;27.17;;
3911;SDS011;1971;51.778;10.330;2023-11-21T03:28:35;196.20;;;38.47;;
3911;SDS011;1971;51.778;10.330;2023-11-21T03:31:06;273.70;;;43.60;;
3911;SDS011;1971;51.778;10.330;2023-11-21T03:33:36;494.70;;;53.63;;
3911;SDS011;1971;51.778;10.330;2023-11-21T03:36:07;328.77;;;49.40;;
3911;SDS011;1971;51.778;10.330;2023-11-21T03:38:41;275.63;;;42.10;;
3911;SDS011;1971;51.778;10.330;2023-11-21T03:41:11;360.60;;;45.10;;
3911;SDS011;1971;51.778;10.330;2023-11-21T03:43:41;339.47;;;43.07;;
3911;SDS011;1971;51.778;10.330;2023-11-21T03:46:13;475.93;;;58.90;;
3911;SDS011;1971;51.778;10.330;2023-11-21T03:48:43;377.13;;;47.13;;
3911;SDS011;1971;51.778;10.330;2023-11-21T03:51:14;342.23;;;50.50;;
3911;SDS011;1971;51.778;10.330;2023-11-21T03:53:47;362.70;;;47.47;;
3911;SDS011;1971;51.778;10.330;2023-11-21T03:56:17;528.63;;;61.60;;
3911;SDS011;1971;51.778;10.330;2023-11-21T03:58:48;448.57;;;55.40;;
3911;SDS011;1971;51.778;10.330;2023-11-21T04:01:19;570.77;;;59.27;;
3911;SDS011;1971;51.778;10.330;2023-11-21T04:03:51;600.57;;;66.10;;
3911;SDS011;1971;51.778;10.330;2023-11-21T04:06:21;633.97;;;67.37;;
3911;SDS011;1971;51.778;10.330;2023-11-21T04:08:54;601.50;;;61.63;;
3911;SDS011;1971;51.778;10.330;2023-11-21T04:11:25;545.97;;;56.30;;
3911;SDS011;1971;51.778;10.330;2023-11-21T04:13:56;383.90;;;47.20;;
3911;SDS011;1971;51.778;10.330;2023-11-21T04:16:26;513.77;;;50.03;;
3911;SDS011;1971;51.778;10.330;2023-11-21T04:18:57;566.87;;;56.27;;
3911;SDS011;1971;51.778;10.330;2023-11-21T04:21:27;606.37;;;60.40;;
3911;SDS011;1971;51.778;10.330;2023-11-21T04:24:00;468.53;;;44.57;;
3911;SDS011;1971;51.778;10.330;2023-11-21T04:26:30;384.90;;;47.07;;
3911;SDS011;1971;51.778;10.330;2023-11-21T04:29:00;462.93;;;50.93;;
3911;SDS011;1971;51.778;10.330;2023-11-21T04:31:31;513.70;;;46.43;;
3911;SDS011;1971;51.778;10.330;2023-11-21T04:34:01;311.37;;;41.77;;
3911;SDS011;1971;51.778;10.330;2023-11-21T04:36:32;302.50;;;37.50;;
3911;SDS011;1971;51.778;10.330;2023-11-21T04:39:05;407.23;;;43.20;;
3911;SDS011;1971;51.778;10.330;2023-11-21T04:41:36;354.70;;;37.50;;
3911;SDS011;1971;51.778;10.330;2023-11-21T04:44:06;282.70;;;39.83;;
3911;SDS011;1971;51.778;10.330;2023-11-21T04:46:36;400.17;;;44.97;;
3911;SDS011;1971;51.778;10.330;2023-11-21T04:49:06;368.53;;;38.23;;
3911;SDS011;1971;51.778;10.330;2023-11-21T04:51:38;312.83;;;34.73;;
3911;SDS011;1971;51.778;10.330;2023-11-21T04:54:10;271.27;;;33.47;;
3911;SDS011;1971;51.778;10.330;2023-11-21T04:56:40;388.20;;;41.90;;
3911;SDS011;1971;51.778;10.330;2023-11-21T04:59:11;245.60;;;33.37;;
3911;SDS011;1971;51.778;10.330;2023-11-21T05:01:41;332.40;;;39.07;;
3911;SDS011;1971;51.778;10.330;2023-11-21T05:04:11;292.77;;;37.30;;
3911;SDS011;1971;51.778;10.330;2023-11-21T05:06:41;204.57;;;32.73;;
3911;SDS011;1971;51.778;10.330;2023-11-21T05:09:15;251.07;;;33.87;;
3911;SDS011;1971;51.778;10.330;2023-11-21T05:11:45;305.67;;;34.03;;
3911;SDS011;1971;51.778;10.330;2023-11-21T05:14:15;219.20;;;31.03;;
3911;SDS011;1971;51.778;10.330;2023-11-21T05:16:45;233.33;;;34.50;;
3911;SDS011;1971;51.778;10.330;2023-11-21T05:19:17;286.10;;;35.70;;
3911;SDS011;1971;51.778;10.330;2023-11-21T05:21:47;233.67;;;28.40;;
3911;SDS011;1971;51.778;10.330;2023-11-21T05:24:20;208.67;;;29.27;;
3911;SDS011;1971;51.778;10.330;2023-11-21T05:26:51;231.07;;;28.60;;
3911;SDS011;1971;51.778;10.330;2023-11-21T05:29:21;250.93;;;32.60;;
3911;SDS011;1971;51.778;10.330;2023-11-21T05:31:52;301.63;;;34.57;;
3911;SDS011;1971;51.778;10.330;2023-11-21T05:34:22;186.17;;;30.23;;
3911;SDS011;1971;51.778;10.330;2023-11-21T05:36:53;221.63;;;29.43;;
3911;SDS011;1971;51.778;10.330;2023-11-21T05:39:27;197.57;;;25.90;;
3911;SDS011;1971;51.778;10.330;2023-11-21T05:41:58;210.30;;;29.20;;
3911;SDS011;1971;51.778;10.330;2023-11-21T05:44:29;165.60;;;25.97;;
3911;SDS011;1971;51.778;10.330;2023-11-21T05:46:59;199.10;;;28.60;;
3911;SDS011;1971;51.778;10.330;2023-11-21T05:49:30;167.53;;;21.50;;
3911;SDS011;1971;51.778;10.330;2023-11-21T05:52:00;136.13;;;23.73;;
3911;SDS011;1971;51.778;10.330;2023-11-21T05:54:34;170.90;;;29.10;;
3911;SDS011;1971;51.778;10.330;2023-11-21T05:57:04;214.07;;;32.07;;
3911;SDS011;1971;51.778;10.330;2023-11-21T05:59:35;183.83;;;22.53;;
3911;SDS011;1971;51.778;10.330;2023-11-21T06:02:06;242.77;;;35.43;;
3911;SDS011;1971;51.778;10.330;2023-11-21T06:04:36;223.97;;;24.40;;
3911;SDS011;1971;51.778;10.330;2023-11-21T06:07:06;251.93;;;33.57;;
3911;SDS011;1971;51.778;10.330;2023-11-21T06:09:39;271.70;;;34.50;;
3911;SDS011;1971;51.778;10.330;2023-11-21T06:12:11;178.87;;;25.77;;
3911;SDS011;1971;51.778;10.330;2023-11-21T06:14:42;260.20;;;34.20;;
3911;SDS011;1971;51.778;10.330;2023-11-21T06:17:13;200.53;;;31.07;;
3911;SDS011;1971;51.778;10.330;2023-11-21T06:19:43;233.07;;;30.40;;
3911;SDS011;1971;51.778;10.330;2023-11-21T06:22:14;217.00;;;29.13;;
3911;SDS011;1971;51.778;10.330;2023-11-21T06:24:47;174.90;;;25.40;;
3911;SDS011;1971;51.778;10.330;2023-11-21T06:27:17;166.87;;;27.20;;
3911;SDS011;1971;51.778;10.330;2023-11-21T06:29:47;119.70;;;18.60;;
3911;SDS011;1971;51.778;10.330;2023-11-21T06:32:17;154.13;;;21.33;;
3911;SDS011;1971;51.778;10.330;2023-11-21T06:34:49;206.83;;;30.30;;
3911;SDS011;1971;51.778;10.330;2023-11-21T06:37:21;168.10;;;22.97;;
3911;SDS011;1971;51.778;10.330;2023-11-21T06:39:54;136.63;;;23.07;;
3911;SDS011;1971;51.778;10.330;2023-11-21T06:42:26;152.90;;;26.13;;
3911;SDS011;1971;51.778;10.330;2023-11-21T06:44:57;245.50;;;30.00;;
3911;SDS011;1971;51.778;10.330;2023-11-21T06:47:30;182.97;;;26.43;;
3911;SDS011;1971;51.778;10.330;2023-11-21T06:50:01;137.97;;;20.63;;
3911;SDS011;1971;51.778;10.330;2023-11-21T06:52:33;141.37;;;22.07;;
3911;SDS011;1971;51.778;10.330;2023-11-21T06:55:07;181.90;;;25.07;;
3911;SDS011;1971;51.778;10.330;2023-11-21T06:57:37;130.97;;;20.97;;
3911;SDS011;1971;51.778;10.330;2023-11-21T07:00:08;89.43;;;15.87;;
3911;SDS011;1971;51.778;10.330;2023-11-21T07:02:39;75.80;;;14.47;;
3911;SDS011;1971;51.778;10.330;2023-11-21T07:05:10;95.17;;;14.57;;
3911;SDS011;1971;51.778;10.330;2023-11-21T07:07:40;50.83;;;11.40;;
3911;SDS011;1971;51.778;10.330;2023-11-21T07:10:15;42.97;;;9.87;;
3911;SDS011;1971;51.778;10.330;2023-11-21T07:12:45;23.07;;;9.27;;
3911;SDS011;1971;51.778;10.330;2023-11-21T07:15:16;16.33;;;7.33;;
3911;SDS011;1971;51.778;10.330;2023-11-21T07:17:46;7.03;;;6.27;;
3911;SDS011;1971;51.778;10.330;2023-11-21T07:20:16;9.50;;;6.33;;
3911;SDS011;1971;51.778;10.330;2023-11-21T07:22:48;13.97;;;6.80;;
3911;SDS011;1971;51.778;10.330;2023-11-21T07:25:21;8.20;;;6.53;;
3911;SDS011;1971;51.778;10.330;2023-11-21T07:27:51;8.07;;;6.40;;
3911;SDS011;1971;51.778;10.330;2023-11-21T07:30:22;8.20;;;5.40;;
3911;SDS011;1971;51.778;10.330;2023-11-21T07:32:53;8.40;;;6.00;;
3911;SDS011;1971;51.778;10.330;2023-11-21T07:35:23;5.90;;;5.30;;
3911;SDS011;1971;51.778;10.330;2023-11-21T07:37:53;8.60;;;5.37;;
3911;SDS011;1971;51.778;10.330;2023-11-21T07:40:26;6.67;;;5.40;;
3911;SDS011;1971;51.778;10.330;2023-11-21T07:42:57;6.17;;;5.30;;
3911;SDS011;1971;51.778;10.330;2023-11-21T07:45:27;5.90;;;5.30;;
3911;SDS011;1971;51.778;10.330;2023-11-21T07:47:58;10.97;;;9.87;;
3911;SDS011;1971;51.778;10.330;2023-11-21T07:50:29;7.00;;;6.00;;
3911;SDS011;1971;51.778;10.330;2023-11-21T07:53:00;7.17;;;4.60;;
3911;SDS011;1971;51.778;10.330;2023-11-21T07:55:34;4.80;;;4.10;;
3911;SDS011;1971;51.778;10.330;2023-11-21T07:58:05;4.30;;;3.90;;
3911;SDS011;1971;51.778;10.330;2023-11-21T08:00:35;4.30;;;3.90;;
3911;SDS011;1971;51.778;10.330;2023-11-21T08:03:06;4.03;;;3.40;;
3911;SDS011;1971;51.778;10.330;2023-11-21T08:05:38;4.03;;;3.20;;
3911;SDS011;1971;51.778;10.330;2023-11-21T08:08:09;3.40;;;3.10;;
3911;SDS011;1971;51.778;10.330;2023-11-21T08:10:41;3.17;;;2.87;;
3911;SDS011;1971;51.778;10.330;2023-11-21T08:13:15;3.70;;;2.90;;
3911;SDS011;1971;51.778;10.330;2023-11-21T08:15:45;4.20;;;3.00;;
3911;SDS011;1971;51.778;10.330;2023-11-21T08:18:15;5.13;;;4.63;;
3911;SDS011;1971;51.778;10.330;2023-11-21T08:20:45;5.60;;;4.00;;
3911;SDS011;1971;51.778;10.330;2023-11-21T08:23:16;3.97;;;3.20;;
3911;SDS011;1971;51.778;10.330;2023-11-21T08:25:49;3.03;;;2.70;;
3911;SDS011;1971;51.778;10.330;2023-11-21T08:28:19;5.20;;;2.60;;
3911;SDS011;1971;51.778;10.330;2023-11-21T08:30:53;3.33;;;2.60;;
3911;SDS011;1971;51.778;10.330;2023-11-21T08:33:23;3.80;;;2.50;;
3911;SDS011;1971;51.778;10.330;2023-11-21T08:35:54;2.40;;;1.93;;
3911;SDS011;1971;51.778;10.330;2023-11-21T08:38:24;7.30;;;2.47;;
3911;SDS011;1971;51.778;10.330;2023-11-21T08:40:58;2.07;;;1.97;;
3911;SDS011;1971;51.778;10.330;2023-11-21T08:43:28;1.90;;;1.80;;
3911;SDS011;1971;51.778;10.330;2023-11-21T08:45:59;2.03;;;1.87;;
3911;SDS011;1971;51.778;10.330;2023-11-21T08:48:29;2.67;;;1.97;;
3911;SDS011;1971;51.778;10.330;2023-11-21T08:50:59;2.70;;;1.80;;
3911;SDS011;1971;51.778;10.330;2023-11-21T08:53:30;1.50;;;1.40;;
3911;SDS011;1971;51.778;10.330;2023-11-21T08:56:03;1.50;;;1.40;;
3911;SDS011;1971;51.778;10.330;2023-11-21T08:58:35;1.27;;;1.17;;
3911;SDS011;1971;51.778;10.330;2023-11-21T09:01:06;1.17;;;1.07;;
3911;SDS011;1971;51.778;10.330;2023-11-21T09:03:36;1.17;;;0.90;;
3911;SDS011;1971;51.778;10.330;2023-11-21T09:06:11;0.83;;;0.83;;
3911;SDS011;1971;51.778;10.330;2023-11-21T09:08:42;0.63;;;0.63;;
3911;SDS011;1971;51.778;10.330;2023-11-21T09:11:15;0.90;;;0.70;;
3911;SDS011;1971;51.778;10.330;2023-11-21T09:13:45;1.23;;;0.60;;
3911;SDS011;1971;51.778;10.330;2023-11-21T09:16:16;0.60;;;0.53;;
3911;SDS011;1971;51.778;10.330;2023-11-21T09:18:47;0.60;;;0.50;;
3911;SDS011;1971;51.778;10.330;2023-11-21T09:21:17;0.53;;;0.50;;
3911;SDS011;1971;51.778;10.330;2023-11-21T09:23:47;0.50;;;0.50;;
3911;SDS011;1971;51.778;10.330;2023-11-21T09:26:20;0.60;;;0.50;;
3911;SDS011;1971;51.778;10.330;2023-11-21T09:28:50;0.60;;;0.53;;
3911;SDS011;1971;51.778;10.330;2023-11-21T09:31:23;0.63;;;0.63;;
3911;SDS011;1971;51.778;10.330;2023-11-21T09:33:57;0.60;;;0.60;;
3911;SDS011;1971;51.778;10.330;2023-11-21T09:36:27;0.80;;;0.80;;
3911;SDS011;1971;51.778;10.330;2023-11-21T09:38:57;1.50;;;1.33;;
3911;SDS011;1971;51.778;10.330;2023-11-21T09:41:34;1.27;;;1.17;;
3911;SDS011;1971;51.778;10.330;2023-11-21T09:44:22;1.87;;;1.40;;
3911;SDS011;1971;51.778;10.330;2023-11-21T09:47:01;1.47;;;1.37;;
3911;SDS011;1971;51.778;10.330;2023-11-21T09:49:37;1.50;;;1.40;;
3911;SDS011;1971;51.778;10.330;2023-11-21T09:52:08;1.70;;;1.60;;
3911;SDS011;1971;51.778;10.330;2023-11-21T09:54:42;2.20;;;2.00;;
3911;SDS011;1971;51.778;10.330;2023-11-21T09:57:16;1.07;;;0.60;;
3911;SDS011;1971;51.778;10.330;2023-11-21T09:59:49;0.70;;;0.70;;
3911;SDS011;1971;51.778;10.330;2023-11-21T10:02:26;0.60;;;0.57;;
3911;SDS011;1971;51.778;10.330;2023-11-21T10:04:59;1.37;;;0.50;;
3911;SDS011;1971;51.778;10.330;2023-11-21T10:07:30;0.70;;;0.70;;
3911;SDS011;1971;51.778;10.330;2023-11-21T10:10:04;0.50;;;0.50;;
3911;SDS011;1971;51.778;10.330;2023-11-21T10:12:38;0.63;;;0.63;;
3911;SDS011;1971;51.778;10.330;2023-11-21T10:15:10;0.57;;;0.57;;
3911;SDS011;1971;51.778;10.330;2023-11-21T10:17:43;0.70;;;0.60;;
3911;SDS011;1971;51.778;10.330;2023-11-21T10:20:15;0.73;;;0.67;;
3911;SDS011;1971;51.778;10.330;2023-11-21T10:22:46;0.60;;;0.60;;
3911;SDS011;1971;51.778;10.330;2023-11-21T10:25:16;0.80;;;0.80;;
3911;SDS011;1971;51.778;10.330;2023-11-21T10:27:50;0.80;;;0.80;;
3911;SDS011;1971;51.778;10.330;2023-11-21T10:30:28;0.70;;;0.70;;
3911;SDS011;1971;51.778;10.330;2023-11-21T10:33:04;1.03;;;0.93;;
3911;SDS011;1971;51.778;10.330;2023-11-21T10:35:38;0.73;;;0.73;;
3911;SDS011;1971;51.778;10.330;2023-11-21T10:38:13;1.17;;;0.97;;
3911;SDS011;1971;51.778;10.330;2023-11-21T10:40:44;1.10;;;0.90;;
3911;SDS011;1971;51.778;10.330;2023-11-21T10:43:18;1.17;;;1.07;;
3911;SDS011;1971;51.778;10.330;2023-11-21T10:45:49;3.10;;;2.00;;
3911;SDS011;1971;51.778;10.330;2023-11-21T10:48:19;3.00;;;2.20;;
3911;SDS011;1971;51.778;10.330;2023-11-21T10:50:50;6.00;;;2.20;;
3911;SDS011;1971;51.778;10.330;2023-11-21T10:53:21;4.17;;;2.63;;
3911;SDS011;1971;51.778;10.330;2023-11-21T10:55:55;1.90;;;1.80;;
3911;SDS011;1971;51.778;10.330;2023-11-21T10:58:34;2.20;;;2.10;;
3911;SDS011;1971;51.778;10.330;2023-11-21T11:01:07;1.63;;;1.53;;
3911;SDS011;1971;51.778;10.330;2023-11-21T11:03:38;1.83;;;1.73;;
3911;SDS011;1971;51.778;10.330;2023-11-21T11:06:10;1.80;;;1.70;;
3911;SDS011;1971;51.778;10.330;2023-11-21T11:08:42;2.63;;;2.43;;
3911;SDS011;1971;51.778;10.330;2023-11-21T11:11:14;3.87;;;2.70;;
3911;SDS011;1971;51.778;10.330;2023-11-21T11:13:48;2.47;;;2.27;;
3911;SDS011;1971;51.778;10.330;2023-11-21T11:16:18;2.70;;;2.50;;
3911;SDS011;1971;51.778;10.330;2023-11-21T11:18:49;3.20;;;2.90;;
3911;SDS011;1971;51.778;10.330;2023-11-21T11:21:23;3.10;;;2.80;;
3911;SDS011;1971;51.778;10.330;2023-11-21T11:24:03;3.50;;;3.20;;
3911;SDS011;1971;51.778;10.330;2023-11-21T11:26:46;4.67;;;3.27;;
3911;SDS011;1971;51.778;10.330;2023-11-21T11:29:26;5.70;;;5.20;;
3911;SDS011;1971;51.778;10.330;2023-11-21T11:32:08;5.33;;;3.87;;
3911;SDS011;1971;51.778;10.330;2023-11-21T11:34:48;4.20;;;3.40;;
3911;SDS011;1971;51.778;10.330;2023-11-21T11:37:25;4.77;;;4.37;;
3911;SDS011;1971;51.778;10.330;2023-11-21T11:39:56;5.03;;;4.60;;
3911;SDS011;1971;51.778;10.330;2023-11-21T11:42:26;4.60;;;4.23;;
3911;SDS011;1971;51.778;10.330;2023-11-21T11:45:00;5.10;;;4.20;;
3911;SDS011;1971;51.778;10.330;2023-11-21T11:47:31;5.60;;;4.90;;
3911;SDS011;1971;51.778;10.330;2023-11-21T11:50:05;6.83;;;6.23;;
3911;SDS011;1971;51.778;10.330;2023-11-21T11:52:40;7.63;;;4.87;;
3911;SDS011;1971;51.778;10.330;2023-11-21T11:55:12;6.30;;;5.23;;
3911;SDS011;1971;51.778;10.330;2023-11-21T11:57:45;8.30;;;6.10;;
3911;SDS011;1971;51.778;10.330;2023-11-21T12:00:21;7.37;;;6.67;;
3911;SDS011;1971;51.778;10.330;2023-11-21T12:03:04;8.13;;;7.30;;
3911;SDS011;1971;51.778;10.330;2023-11-21T12:05:36;7.37;;;6.30;;
3911;SDS011;1971;51.778;10.330;2023-11-21T12:08:10;6.30;;;5.70;;
3911;SDS011;1971;51.778;10.330;2023-11-21T12:10:41;6.47;;;5.53;;
3911;SDS011;1971;51.778;10.330;2023-11-21T12:13:13;7.40;;;6.20;;
3911;SDS011;1971;51.778;10.330;2023-11-21T12:15:46;9.20;;;7.47;;
3911;SDS011;1971;51.778;10.330;2023-11-21T12:18:16;7.50;;;6.77;;
3911;SDS011;1971;51.778;10.330;2023-11-21T12:20:46;6.73;;;5.80;;
3911;SDS011;1971;51.778;10.330;2023-11-21T12:23:18;6.43;;;5.47;;
3911;SDS011;1971;51.778;10.330;2023-11-21T12:25:48;7.30;;;5.90;;
3911;SDS011;1971;51.778;10.330;2023-11-21T12:28:18;6.60;;;5.13;;
3911;SDS011;1971;51.778;10.330;2023-11-21T12:30:52;5.13;;;4.63;;
3911;SDS011;1971;51.778;10.330;2023-11-21T12:33:40;6.73;;;5.60;;
3911;SDS011;1971;51.778;10.330;2023-11-21T12:36:10;7.47;;;6.17;;
3911;SDS011;1971;51.778;10.330;2023-11-21T12:38:41;6.17;;;5.60;;
3911;SDS011;1971;51.778;10.330;2023-11-21T12:41:12;6.90;;;6.20;;
3911;SDS011;1971;51.778;10.330;2023-11-21T12:43:45;7.40;;;4.87;;
3911;SDS011;1971;51.778;10.330;2023-11-21T12:46:18;6.63;;;6.03;;
3911;SDS011;1971;51.778;10.330;2023-11-21T12:48:48;5.90;;;4.90;;
3911;SDS011;1971;51.778;10.330;2023-11-21T12:51:18;5.77;;;5.20;;
3911;SDS011;1971;51.778;10.330;2023-11-21T12:53:51;7.00;;;6.13;;
3911;SDS011;1971;51.778;10.330;2023-11-21T12:56:21;7.60;;;6.50;;
3911;SDS011;1971;51.778;10.330;2023-11-21T12:58:53;4.43;;;4.03;;
3911;SDS011;1971;51.778;10.330;2023-11-21T13:01:28;7.10;;;6.43;;
3911;SDS011;1971;51.778;10.330;2023-11-21T13:03:58;9.50;;;5.53;;
3911;SDS011;1971;51.778;10.330;2023-11-21T13:06:29;5.33;;;4.80;;
3911;SDS011;1971;51.778;10.330;2023-11-21T13:09:05;6.70;;;4.73;;
3911;SDS011;1971;51.778;10.330;2023-11-21T13:11:37;7.40;;;6.67;;
3911;SDS011;1971;51.778;10.330;2023-11-21T13:14:08;7.00;;;5.80;;
3911;SDS011;1971;51.778;10.330;2023-11-21T13:16:42;9.60;;;6.77;;
3911;SDS011;1971;51.778;10.330;2023-11-21T13:19:13;7.40;;;5.80;;
3911;SDS011;1971;51.778;10.330;2023-11-21T13:21:43;6.60;;;5.27;;
3911;SDS011;1971;51.778;10.330;2023-11-21T13:24:13;6.43;;;5.83;;
3911;SDS011;1971;51.778;10.330;2023-11-21T13:26:44;6.43;;;5.37;;
3911;SDS011;1971;51.778;10.330;2023-11-21T13:29:17;8.17;;;7.07;;
3911;SDS011;1971;51.778;10.330;2023-11-21T13:31:50;9.17;;;8.40;;
3911;SDS011;1971;51.778;10.330;2023-11-21T13:34:22;8.83;;;7.43;;
3911;SDS011;1971;51.778;10.330;2023-11-21T13:36:59;7.50;;;5.53;;
3911;SDS011;1971;51.778;10.330;2023-11-21T13:39:31;7.23;;;6.20;;
3911;SDS011;1971;51.778;10.330;2023-11-21T13:42:03;6.13;;;5.30;;
3911;SDS011;1971;51.778;10.330;2023-11-21T13:44:33;5.97;;;5.20;;
3911;SDS011;1971;51.778;10.330;2023-11-21T13:47:08;8.20;;;5.67;;
3911;SDS011;1971;51.778;10.330;2023-11-21T13:49:38;6.30;;;5.80;;
3911;SDS011;1971;51.778;10.330;2023-11-21T13:52:09;7.23;;;5.90;;
3911;SDS011;1971;51.778;10.330;2023-11-21T13:54:43;6.40;;;5.23;;
3911;SDS011;1971;51.778;10.330;2023-11-21T13:57:14;8.70;;;5.50;;
3911;SDS011;1971;51.778;10.330;2023-11-21T13:59:44;6.07;;;5.47;;
3911;SDS011;1971;51.778;10.330;2023-11-21T14:02:17;4.80;;;4.30;;
3911;SDS011;1971;51.778;10.330;2023-11-21T14:04:54;6.33;;;4.60;;
3911;SDS011;1971;51.778;10.330;2023-11-21T14:07:27;5.57;;;5.03;;
3911;SDS011;1971;51.778;10.330;2023-11-21T14:10:03;6.10;;;4.47;;
3911;SDS011;1971;51.778;10.330;2023-11-21T14:12:39;7.33;;;4.83;;
3911;SDS011;1971;51.778;10.330;2023-11-21T14:15:09;6.00;;;4.93;;
3911;SDS011;1971;51.778;10.330;2023-11-21T14:17:46;8.63;;;5.50;;
3911;SDS011;1971;51.778;10.330;2023-11-21T14:20:17;5.60;;;4.30;;
3911;SDS011;1971;51.778;10.330;2023-11-21T14:22:48;7.17;;;4.40;;
3911;SDS011;1971;51.778;10.330;2023-11-21T14:25:18;5.87;;;5.20;;
3911;SDS011;1971;51.778;10.330;2023-11-21T14:27:49;7.17;;;5.30;;
3911;SDS011;1971;51.778;10.330;2023-11-21T14:30:20;4.40;;;3.97;;
3911;SDS011;1971;51.778;10.330;2023-11-21T14:32:54;4.83;;;4.13;;
3911;SDS011;1971;51.778;10.330;2023-11-21T14:35:24;5.00;;;4.07;;
3911;SDS011;1971;51.778;10.330;2023-11-21T14:37:57;4.00;;;3.27;;
3911;SDS011;1971;51.778;10.330;2023-11-21T14:40:29;4.60;;;4.23;;
3911;SDS011;1971;51.778;10.330;2023-11-21T14:43:00;4.43;;;4.00;;
3911;SDS011;1971;51.778;10.330;2023-11-21T14:45:32;4.43;;;4.03;;
3911;SDS011;1971;51.778;10.330;2023-11-21T14:48:05;4.93;;;3.80;;
3911;SDS011;1971;51.778;10.330;2023-11-21T14:50:43;6.33;;;3.67;;
3911;SDS011;1971;51.778;10.330;2023-11-21T14:53:38;4.63;;;4.23;;
3911;SDS011;1971;51.778;10.330;2023-11-21T14:56:09;5.33;;;4.83;;
3911;SDS011;1971;51.778;10.330;2023-11-21T14:58:48;2.83;;;2.63;;
3911;SDS011;1971;51.778;10.330;2023-11-21T15:01:18;4.90;;;3.90;;
3911;SDS011;1971;51.778;10.330;2023-11-21T15:04:03;3.50;;;3.20;;
3911;SDS011;1971;51.778;10.330;2023-11-21T15:06:33;3.67;;;3.37;;
3911;SDS011;1971;51.778;10.330;2023-11-21T15:09:01;3.60;;;2.67;;
3911;SDS011;1971;51.778;10.330;2023-11-21T15:11:43;4.63;;;4.23;;
3911;SDS011;1971;51.778;10.330;2023-11-21T15:14:14;3.30;;;3.00;;